Private Wetterstation Sandau
Wetterdaten: Donnerstag, 05.04.2012
Datum Zeit Temp. A. Feuchte A. Luftdruck Regen Wind Richtung Richtung Taupunkt Windchill
05.04.2012 00:02 3,6 C 87 % 1017,5 hPa 0,0 l/m 3,6 km/h (1 Bft) O-NO 67 1,6 C 3,6 C
05.04.2012 00:07 3,6 C 87 % 1017,4 hPa 0,0 l/m 4,0 km/h (1 Bft) O-NO 67 1,6 C 3,6 C
05.04.2012 00:12 3,6 C 87 % 1017,5 hPa 0,0 l/m 7,9 km/h (2 Bft) O-NO 67 1,6 C 1,5 C
05.04.2012 00:17 3,6 C 87 % 1017,6 hPa 0,0 l/m 3,6 km/h (1 Bft) O-NO 67 1,6 C 3,6 C
05.04.2012 00:22 3,6 C 87 % 1017,5 hPa 0,0 l/m 2,5 km/h (1 Bft) O-NO 67 1,6 C 3,6 C
05.04.2012 00:27 3,5 C 87 % 1017,6 hPa 0,0 l/m 1,1 km/h (1 Bft) O 90 1,5 C 3,5 C
05.04.2012 00:32 3,5 C 87 % 1017,5 hPa 0,0 l/m 4,3 km/h (1 Bft) O-NO 67 1,5 C 3,5 C
05.04.2012 00:37 3,4 C 87 % 1017,7 hPa 0,0 l/m 7,2 km/h (2 Bft) O-NO 67 1,4 C 1,5 C
05.04.2012 00:42 3,4 C 87 % 1017,9 hPa 0,0 l/m 4,7 km/h (1 Bft) N-NO 22 1,4 C 2,4 C
05.04.2012 00:47 3,4 C 87 % 1017,8 hPa 0,0 l/m 3,6 km/h (1 Bft) O 90 1,4 C 3,4 C
05.04.2012 00:52 3,4 C 87 % 1018,0 hPa 0,0 l/m 6,1 km/h (2 Bft) O-NO 67 1,4 C 1,8 C
05.04.2012 00:57 3,4 C 87 % 1017,9 hPa 0,0 l/m 2,2 km/h (1 Bft) O-NO 67 1,4 C 3,4 C
05.04.2012 01:02 3,4 C 87 % 1017,9 hPa 0,0 l/m 4,3 km/h (1 Bft) O 90 1,4 C 3,4 C
05.04.2012 01:07 3,4 C 87 % 1018,0 hPa 0,0 l/m 2,2 km/h (1 Bft) O-NO 67 1,4 C 3,4 C
05.04.2012 01:12 3,5 C 87 % 1017,8 hPa 0,0 l/m 3,2 km/h (1 Bft) O-NO 67 1,5 C 3,5 C
05.04.2012 01:17 3,5 C 87 % 1017,9 hPa 0,0 l/m 4,0 km/h (1 Bft) O 90 1,5 C 3,5 C
05.04.2012 01:22 3,4 C 87 % 1017,9 hPa 0,0 l/m 4,0 km/h (1 Bft) O-NO 67 1,4 C 3,4 C
05.04.2012 01:27 3,5 C 87 % 1017,9 hPa 0,0 l/m 4,3 km/h (1 Bft) NO 45 1,5 C 3,5 C
05.04.2012 01:32 3,5 C 87 % 1018,0 hPa 0,0 l/m 1,8 km/h (1 Bft) O 90 1,5 C 3,5 C
05.04.2012 01:37 3,5 C 87 % 1018,0 hPa 0,0 l/m 4,0 km/h (1 Bft) O-NO 67 1,5 C 3,5 C
05.04.2012 01:42 3,5 C 87 % 1018,2 hPa 0,0 l/m 3,6 km/h (1 Bft) O-NO 67 1,5 C 3,5 C
05.04.2012 01:47 3,5 C 87 % 1018,0 hPa 0,0 l/m 9,4 km/h (2 Bft) N-NO 22 1,5 C 1,0 C
05.04.2012 01:52 3,4 C 87 % 1018,2 hPa 0,0 l/m 4,0 km/h (1 Bft) O 90 1,4 C 3,4 C
05.04.2012 01:57 3,4 C 87 % 1018,2 hPa 0,0 l/m 6,5 km/h (2 Bft) O 90 1,4 C 1,7 C
05.04.2012 02:02 3,4 C 87 % 1018,3 hPa 0,0 l/m 2,5 km/h (1 Bft) O 90 1,4 C 3,4 C
05.04.2012 02:07 3,4 C 87 % 1018,1 hPa 0,0 l/m 3,6 km/h (1 Bft) O-NO 67 1,4 C 3,4 C
05.04.2012 02:12 3,4 C 87 % 1018,3 hPa 0,0 l/m 2,9 km/h (1 Bft) O-NO 67 1,4 C 3,4 C
05.04.2012 02:17 3,4 C 87 % 1018,5 hPa 0,0 l/m 3,2 km/h (1 Bft) O 90 1,4 C 3,4 C
05.04.2012 02:22 3,4 C 87 % 1018,4 hPa 0,0 l/m 6,5 km/h (2 Bft) NO 45 1,4 C 1,7 C
05.04.2012 02:27 3,4 C 87 % 1018,3 hPa 0,0 l/m 3,6 km/h (1 Bft) O-NO 67 1,4 C 3,4 C
05.04.2012 02:32 3,4 C 87 % 1018,4 hPa 0,0 l/m 8,3 km/h (2 Bft) O 90 1,4 C 1,2 C
05.04.2012 02:37 3,4 C 87 % 1018,2 hPa 0,0 l/m 4,0 km/h (1 Bft) O-NO 67 1,4 C 3,4 C
05.04.2012 02:42 3,4 C 87 % 1018,4 hPa 0,0 l/m 1,8 km/h (1 Bft) O-NO 67 1,4 C 3,4 C
05.04.2012 02:47 3,4 C 87 % 1018,3 hPa 0,0 l/m 5,4 km/h (1 Bft) O-NO 67 1,4 C 2,1 C
05.04.2012 02:52 3,4 C 87 % 1018,4 hPa 0,0 l/m 4,0 km/h (1 Bft) O-NO 67 1,4 C 3,4 C
05.04.2012 02:57 3,4 C 87 % 1018,4 hPa 0,0 l/m 7,6 km/h (2 Bft) O-NO 67 1,4 C 1,4 C
05.04.2012 03:02 3,4 C 87 % 1018,3 hPa 0,0 l/m 2,5 km/h (1 Bft) O-NO 67 1,4 C 3,4 C
05.04.2012 03:07 3,4 C 87 % 1018,3 hPa 0,0 l/m 7,6 km/h (2 Bft) O-NO 67 1,4 C 1,4 C
05.04.2012 03:12 3,3 C 87 % 1018,3 hPa 0,0 l/m 5,4 km/h (1 Bft) O 90 1,3 C 2,0 C
05.04.2012 03:17 3,3 C 87 % 1018,3 hPa 0,0 l/m 3,2 km/h (1 Bft) O-NO 67 1,3 C 3,3 C
05.04.2012 03:22 3,3 C 87 % 1018,5 hPa 0,0 l/m 4,7 km/h (1 Bft) O-NO 67 1,3 C 2,3 C
05.04.2012 03:27 3,3 C 87 % 1018,6 hPa 0,0 l/m 2,9 km/h (1 Bft) O 90 1,3 C 3,3 C
05.04.2012 03:32 3,3 C 87 % 1018,6 hPa 0,0 l/m 3,2 km/h (1 Bft) O-NO 67 1,3 C 3,3 C
05.04.2012 03:37 3,3 C 87 % 1018,5 hPa 0,0 l/m 5,0 km/h (1 Bft) O-NO 67 1,3 C 2,2 C
05.04.2012 03:42 3,3 C 87 % 1018,6 hPa 0,0 l/m 6,5 km/h (2 Bft) O-NO 67 1,3 C 1,6 C
05.04.2012 03:47 3,3 C 87 % 1018,5 hPa 0,0 l/m 7,2 km/h (2 Bft) O 90 1,3 C 1,4 C
05.04.2012 03:52 3,3 C 87 % 1018,7 hPa 0,0 l/m 2,5 km/h (1 Bft) N-NO 22 1,3 C 3,3 C
05.04.2012 03:57 3,3 C 87 % 1018,6 hPa 0,0 l/m 2,5 km/h (1 Bft) O-NO 67 1,3 C 3,3 C
05.04.2012 04:02 3,3 C 88 % 1018,6 hPa 0,0 l/m 4,3 km/h (1 Bft) O-NO 67 1,5 C 3,3 C
05.04.2012 04:07 3,3 C 88 % 1018,7 hPa 0,0 l/m 6,5 km/h (2 Bft) O-NO 67 1,5 C 1,6 C
05.04.2012 04:12 3,3 C 88 % 1018,8 hPa 0,0 l/m 2,9 km/h (1 Bft) O-NO 67 1,5 C 3,3 C
05.04.2012 04:17 3,3 C 88 % 1018,6 hPa 0,0 l/m 2,9 km/h (1 Bft) O-SO 112 1,5 C 3,3 C
05.04.2012 04:22 3,3 C 87 % 1018,6 hPa 0,0 l/m 3,6 km/h (1 Bft) O 90 1,3 C 3,3 C
05.04.2012 04:27 3,4 C 87 % 1018,8 hPa 0,0 l/m 3,2 km/h (1 Bft) O-NO 67 1,4 C 3,4 C
05.04.2012 04:32 3,3 C 87 % 1018,6 hPa 0,0 l/m 7,2 km/h (2 Bft) O-NO 67 1,3 C 1,4 C
05.04.2012 04:37 3,3 C 87 % 1018,8 hPa 0,0 l/m 3,2 km/h (1 Bft) O 90 1,3 C 3,3 C
05.04.2012 04:42 3,3 C 87 % 1018,7 hPa 0,0 l/m 5,8 km/h (2 Bft) O-NO 67 1,3 C 1,8 C
05.04.2012 04:47 3,3 C 87 % 1018,8 hPa 0,0 l/m 4,7 km/h (1 Bft) O-NO 67 1,3 C 2,3 C
05.04.2012 04:52 3,3 C 87 % 1018,7 hPa 0,0 l/m 6,1 km/h (2 Bft) O 90 1,3 C 1,7 C
05.04.2012 04:57 3,3 C 87 % 1018,7 hPa 0,0 l/m 4,7 km/h (1 Bft) O-NO 67 1,3 C 2,3 C
05.04.2012 05:02 3,3 C 87 % 1018,6 hPa 0,0 l/m 4,3 km/h (1 Bft) O-NO 67 1,3 C 3,3 C
05.04.2012 05:07 3,3 C 87 % 1018,8 hPa 0,0 l/m 0,0 km/h (0 Bft) O-NO 67 1,3 C 3,3 C
05.04.2012 05:12 3,3 C 87 % 1019,0 hPa 0,0 l/m 6,5 km/h (2 Bft) O-NO 67 1,3 C 1,6 C
05.04.2012 05:17 3,4 C 87 % 1018,8 hPa 0,0 l/m 3,6 km/h (1 Bft) O-NO 67 1,4 C 3,4 C
05.04.2012 05:22 3,4 C 87 % 1018,9 hPa 0,0 l/m 9,7 km/h (2 Bft) O-SO 112 1,4 C 0,8 C
05.04.2012 05:27 3,4 C 87 % 1018,8 hPa 0,0 l/m 6,5 km/h (2 Bft) NO 45 1,4 C 1,7 C
05.04.2012 05:32 3,3 C 87 % 1018,9 hPa 0,0 l/m 4,3 km/h (1 Bft) O-NO 67 1,3 C 3,3 C
05.04.2012 05:37 3,4 C 87 % 1018,8 hPa 0,0 l/m 6,1 km/h (2 Bft) O-NO 67 1,4 C 1,8 C
05.04.2012 05:42 3,4 C 87 % 1018,9 hPa 0,0 l/m 3,6 km/h (1 Bft) O 90 1,4 C 3,4 C
05.04.2012 05:47 3,3 C 87 % 1018,9 hPa 0,0 l/m 6,1 km/h (2 Bft) O 90 1,3 C 1,7 C
05.04.2012 05:52 3,3 C 87 % 1018,7 hPa 0,0 l/m 3,6 km/h (1 Bft) O-NO 67 1,3 C 3,3 C
05.04.2012 05:57 3,3 C 87 % 1019,0 hPa 0,0 l/m 5,4 km/h (1 Bft) O-NO 67 1,3 C 2,0 C
05.04.2012 06:02 3,3 C 87 % 1018,9 hPa 0,0 l/m 4,7 km/h (1 Bft) O-NO 67 1,3 C 2,3 C
05.04.2012 06:07 3,3 C 87 % 1018,9 hPa 0,0 l/m 2,5 km/h (1 Bft) O 90 1,3 C 3,3 C
05.04.2012 06:12 3,3 C 87 % 1019,0 hPa 0,0 l/m 3,6 km/h (1 Bft) O-NO 67 1,3 C 3,3 C
05.04.2012 06:17 3,3 C 87 % 1019,1 hPa 0,0 l/m 1,4 km/h (1 Bft) O-NO 67 1,3 C 3,3 C
05.04.2012 06:22 3,3 C 87 % 1019,1 hPa 0,0 l/m 4,7 km/h (1 Bft) O-NO 67 1,3 C 2,3 C
05.04.2012 06:27 3,3 C 87 % 1019,3 hPa 0,0 l/m 6,1 km/h (2 Bft) O 90 1,3 C 1,7 C
05.04.2012 06:32 3,3 C 87 % 1019,2 hPa 0,0 l/m 5,8 km/h (2 Bft) O 90 1,3 C 1,8 C
05.04.2012 06:37 3,3 C 87 % 1019,3 hPa 0,0 l/m 5,4 km/h (1 Bft) O-NO 67 1,3 C 2,0 C
05.04.2012 06:42 3,3 C 87 % 1019,4 hPa 0,0 l/m 7,9 km/h (2 Bft) O 90 1,3 C 1,2 C
05.04.2012 06:47 3,3 C 87 % 1019,3 hPa 0,0 l/m 4,7 km/h (1 Bft) O-NO 67 1,3 C 2,3 C
05.04.2012 06:52 3,3 C 87 % 1019,4 hPa 0,0 l/m 2,5 km/h (1 Bft) O-NO 67 1,3 C 3,3 C
05.04.2012 06:57 3,3 C 87 % 1019,5 hPa 0,0 l/m 7,6 km/h (2 Bft) O-NO 67 1,3 C 1,3 C
05.04.2012 07:02 3,3 C 87 % 1019,4 hPa 0,0 l/m 8,6 km/h (2 Bft) O-NO 67 1,3 C 1,0 C
05.04.2012 07:07 3,3 C 87 % 1019,3 hPa 0,0 l/m 5,8 km/h (2 Bft) O-NO 67 1,3 C 1,8 C
05.04.2012 07:12 3,3 C 87 % 1019,5 hPa 0,0 l/m 3,6 km/h (1 Bft) O-NO 67 1,3 C 3,3 C
05.04.2012 07:17 3,3 C 87 % 1019,6 hPa 0,0 l/m 3,6 km/h (1 Bft) O-NO 67 1,3 C 3,3 C
05.04.2012 07:22 3,3 C 87 % 1019,6 hPa 0,0 l/m 14,8 km/h (3 Bft) O-NO 67 1,3 C -0,3 C
05.04.2012 07:27 3,3 C 87 % 1019,7 hPa 0,0 l/m 8,3 km/h (2 Bft) O 90 1,3 C 1,1 C
05.04.2012 07:32 3,3 C 87 % 1019,8 hPa 0,0 l/m 6,1 km/h (2 Bft) O-NO 67 1,3 C 1,7 C
05.04.2012 07:37 3,3 C 86 % 1019,8 hPa 0,0 l/m 4,3 km/h (1 Bft) O-NO 67 1,2 C 3,3 C
05.04.2012 07:42 3,3 C 86 % 1020,0 hPa 0,0 l/m 6,5 km/h (2 Bft) O-NO 67 1,2 C 1,6 C
05.04.2012 07:47 3,3 C 86 % 1020,0 hPa 0,0 l/m 7,2 km/h (2 Bft) O 90 1,2 C 1,4 C
05.04.2012 07:52 3,3 C 86 % 1020,2 hPa 0,0 l/m 5,0 km/h (1 Bft) O 90 1,2 C 2,2 C
05.04.2012 07:57 3,3 C 86 % 1020,1 hPa 0,0 l/m 7,2 km/h (2 Bft) O 90 1,2 C 1,4 C
05.04.2012 08:02 3,4 C 86 % 1020,1 hPa 0,0 l/m 11,2 km/h (2 Bft) O-NO 67 1,3 C 0,5 C
05.04.2012 08:07 3,3 C 85 % 1020,3 hPa 0,0 l/m 6,8 km/h (2 Bft) O-NO 67 1,0 C 1,5 C
05.04.2012 08:12 3,3 C 85 % 1020,3 hPa 0,0 l/m 12,6 km/h (3 Bft) O 90 1,0 C 0,1 C
05.04.2012 08:17 3,4 C 85 % 1020,3 hPa 0,0 l/m 6,5 km/h (2 Bft) O-NO 67 1,1 C 1,7 C
05.04.2012 08:22 3,4 C 84 % 1020,3 hPa 0,0 l/m 7,6 km/h (2 Bft) O-NO 67 1,0 C 1,4 C
05.04.2012 08:27 3,4 C 84 % 1020,3 hPa 0,0 l/m 4,0 km/h (1 Bft) O-NO 67 1,0 C 3,4 C
05.04.2012 08:32 3,4 C 84 % 1020,4 hPa 0,0 l/m 5,4 km/h (1 Bft) O-NO 67 1,0 C 2,1 C
05.04.2012 08:37 3,4 C 84 % 1020,5 hPa 0,0 l/m 4,3 km/h (1 Bft) O-NO 67 1,0 C 3,4 C
05.04.2012 08:42 3,4 C 84 % 1020,5 hPa 0,0 l/m 7,6 km/h (2 Bft) O-NO 67 1,0 C 1,4 C
05.04.2012 08:47 3,5 C 84 % 1020,5 hPa 0,0 l/m 8,6 km/h (2 Bft) O-NO 67 1,1 C 1,2 C
05.04.2012 08:52 3,5 C 84 % 1020,6 hPa 0,0 l/m 4,7 km/h (1 Bft) O 90 1,1 C 2,5 C
05.04.2012 08:57 3,5 C 84 % 1020,5 hPa 0,0 l/m 4,3 km/h (1 Bft) O-NO 67 1,1 C 3,5 C
05.04.2012 09:02 3,6 C 83 % 1020,6 hPa 0,0 l/m 5,0 km/h (1 Bft) O 90 1,0 C 2,5 C
05.04.2012 09:07 3,6 C 83 % 1020,5 hPa 0,0 l/m 9,7 km/h (2 Bft) O 90 1,0 C 1,1 C
05.04.2012 09:12 3,6 C 83 % 1020,5 hPa 0,0 l/m 6,1 km/h (2 Bft) SO 135 1,0 C 2,1 C
05.04.2012 09:17 3,8 C 83 % 1020,7 hPa 0,0 l/m 4,7 km/h (1 Bft) O 90 1,2 C 2,8 C
05.04.2012 09:22 3,8 C 83 % 1020,8 hPa 0,0 l/m 5,4 km/h (1 Bft) O 90 1,2 C 2,6 C
05.04.2012 09:27 3,9 C 83 % 1020,7 hPa 0,0 l/m 8,6 km/h (2 Bft) O 90 1,3 C 1,7 C
05.04.2012 09:32 3,9 C 82 % 1020,9 hPa 0,0 l/m 5,8 km/h (2 Bft) O-NO 67 1,1 C 2,5 C
05.04.2012 09:37 3,9 C 82 % 1020,8 hPa 0,0 l/m 8,3 km/h (2 Bft) O 90 1,1 C 1,8 C
05.04.2012 09:42 3,9 C 82 % 1020,9 hPa 0,0 l/m 5,4 km/h (1 Bft) NO 45 1,1 C 2,7 C
05.04.2012 09:47 4,1 C 82 % 1020,8 hPa 0,0 l/m 5,0 km/h (1 Bft) O-NO 67 1,3 C 3,1 C
05.04.2012 09:52 4,1 C 82 % 1020,8 hPa 0,0 l/m 4,3 km/h (1 Bft) O-NO 67 1,3 C 4,1 C
05.04.2012 09:57 4,1 C 82 % 1020,9 hPa 0,0 l/m 8,3 km/h (2 Bft) O-NO 67 1,3 C 2,0 C
05.04.2012 10:02 4,2 C 81 % 1020,8 hPa 0,0 l/m 6,1 km/h (2 Bft) O-SO 112 1,2 C 2,8 C
05.04.2012 10:07 4,3 C 81 % 1021,1 hPa 0,0 l/m 0,0 km/h (0 Bft) O-NO 67 1,3 C 4,3 C
05.04.2012 10:12 4,3 C 81 % 1021,0 hPa 0,0 l/m 6,8 km/h (2 Bft) O 90 1,3 C 2,7 C
05.04.2012 10:17 4,5 C 81 % 1021,0 hPa 0,0 l/m 2,5 km/h (1 Bft) O-NO 67 1,5 C 4,5 C
05.04.2012 10:22 4,5 C 81 % 1021,2 hPa 0,0 l/m 5,0 km/h (1 Bft) NO 45 1,5 C 3,5 C
05.04.2012 10:27 4,5 C 81 % 1021,2 hPa 0,0 l/m 9,4 km/h (2 Bft) O-NO 67 1,5 C 2,2 C
05.04.2012 10:32 4,5 C 80 % 1021,0 hPa 0,0 l/m 5,8 km/h (2 Bft) O-NO 67 1,4 C 3,2 C
05.04.2012 10:37 4,5 C 80 % 1021,1 hPa 0,0 l/m 6,8 km/h (2 Bft) O 90 1,4 C 2,9 C
05.04.2012 10:42 4,6 C 80 % 1021,1 hPa 0,0 l/m 4,7 km/h (1 Bft) O-NO 67 1,5 C 3,8 C
05.04.2012 10:47 4,7 C 80 % 1021,2 hPa 0,0 l/m 11,5 km/h (2 Bft) O-NO 67 1,6 C 2,0 C
05.04.2012 10:52 4,8 C 80 % 1021,1 hPa 0,0 l/m 7,6 km/h (2 Bft) O-NO 67 1,6 C 3,0 C
05.04.2012 10:57 4,9 C 79 % 1021,2 hPa 0,0 l/m 4,7 km/h (1 Bft) O-NO 67 1,6 C 4,1 C
05.04.2012 11:02 5,0 C 79 % 1021,2 hPa 0,0 l/m 9,7 km/h (2 Bft) O-NO 67 1,7 C 2,7 C
05.04.2012 11:07 5,1 C 79 % 1021,0 hPa 0,0 l/m 5,0 km/h (1 Bft) O-NO 67 1,8 C 4,2 C
05.04.2012 11:12 5,3 C 79 % 1021,2 hPa 0,0 l/m 5,0 km/h (1 Bft) O-NO 67 2,0 C 4,4 C
05.04.2012 11:17 5,4 C 77 % 1021,1 hPa 0,0 l/m 7,9 km/h (2 Bft) O-SO 112 1,7 C 3,6 C
05.04.2012 11:22 5,4 C 77 % 1021,1 hPa 0,0 l/m 7,9 km/h (2 Bft) O 90 1,7 C 3,6 C
05.04.2012 11:27 5,5 C 77 % 1021,2 hPa 0,0 l/m 4,7 km/h (1 Bft) O 90 1,8 C 4,8 C
05.04.2012 11:32 5,6 C 76 % 1021,1 hPa 0,0 l/m 12,2 km/h (2 Bft) O 90 1,7 C 2,9 C
05.04.2012 11:37 5,8 C 76 % 1021,0 hPa 0,0 l/m 5,0 km/h (1 Bft) O 90 1,9 C 5,0 C
05.04.2012 11:42 5,8 C 74 % 1021,0 hPa 0,0 l/m 8,3 km/h (2 Bft) O 90 1,5 C 4,0 C
05.04.2012 11:47 5,9 C 73 % 1021,0 hPa 0,0 l/m 6,1 km/h (2 Bft) O-NO 67 1,4 C 4,7 C
05.04.2012 11:52 5,9 C 73 % 1021,0 hPa 0,0 l/m 5,4 km/h (1 Bft) O-NO 67 1,4 C 5,0 C
05.04.2012 11:57 5,9 C 72 % 1021,0 hPa 0,0 l/m 10,4 km/h (2 Bft) O-NO 67 1,2 C 3,7 C
05.04.2012 12:02 5,9 C 71 % 1021,1 hPa 0,0 l/m 5,8 km/h (2 Bft) O 90 1,1 C 4,8 C
05.04.2012 12:07 5,9 C 71 % 1021,2 hPa 0,0 l/m 3,6 km/h (1 Bft) O-SO 112 1,1 C 5,9 C
05.04.2012 12:12 5,8 C 71 % 1020,9 hPa 0,0 l/m 6,1 km/h (2 Bft) O 90 1,0 C 4,6 C
05.04.2012 12:17 5,8 C 71 % 1021,0 hPa 0,0 l/m 3,6 km/h (1 Bft) O 90 1,0 C 5,8 C
05.04.2012 12:22 5,8 C 72 % 1021,0 hPa 0,0 l/m 8,3 km/h (2 Bft) O-SO 112 1,2 C 4,0 C
05.04.2012 12:27 5,8 C 71 % 1021,0 hPa 0,0 l/m 7,9 km/h (2 Bft) O 90 1,0 C 4,1 C
05.04.2012 12:32 5,8 C 71 % 1021,1 hPa 0,0 l/m 4,0 km/h (1 Bft) O 90 1,0 C 5,8 C
05.04.2012 12:37 5,9 C 71 % 1021,0 hPa 0,0 l/m 13,0 km/h (3 Bft) NO 45 1,1 C 3,2 C
05.04.2012 12:42 6,1 C 70 % 1021,0 hPa 0,0 l/m 9,7 km/h (2 Bft) O 90 1,0 C 4,0 C
05.04.2012 12:47 6,2 C 69 % 1021,0 hPa 0,0 l/m 9,4 km/h (2 Bft) O-SO 112 0,9 C 4,2 C
05.04.2012 12:52 6,2 C 69 % 1020,9 hPa 0,0 l/m 4,7 km/h (1 Bft) O-NO 67 0,9 C 5,6 C
05.04.2012 12:57 6,2 C 68 % 1020,8 hPa 0,0 l/m 6,5 km/h (2 Bft) O 90 0,7 C 4,9 C
05.04.2012 13:02 6,1 C 68 % 1020,9 hPa 0,0 l/m 13,7 km/h (3 Bft) O 90 0,6 C 3,3 C
05.04.2012 13:07 6,1 C 68 % 1020,8 hPa 0,0 l/m 8,3 km/h (2 Bft) O 90 0,6 C 4,4 C
05.04.2012 13:12 6,1 C 69 % 1020,9 hPa 0,0 l/m 14,0 km/h (3 Bft) O-NO 67 0,8 C 3,3 C
05.04.2012 13:17 6,1 C 69 % 1020,8 hPa 0,0 l/m 6,5 km/h (2 Bft) O-NO 67 0,8 C 4,8 C
05.04.2012 13:22 6,1 C 69 % 1020,7 hPa 0,0 l/m 11,5 km/h (2 Bft) O-NO 67 0,8 C 3,7 C
05.04.2012 13:27 6,1 C 69 % 1020,7 hPa 0,0 l/m 7,9 km/h (2 Bft) O 90 0,8 C 4,5 C
05.04.2012 13:32 6,1 C 69 % 1020,9 hPa 0,0 l/m 5,8 km/h (2 Bft) O-NO 67 0,8 C 5,1 C
05.04.2012 13:37 6,1 C 69 % 1020,8 hPa 0,0 l/m 10,4 km/h (2 Bft) O 90 0,8 C 3,9 C
05.04.2012 13:42 6,2 C 69 % 1020,6 hPa 0,0 l/m 3,2 km/h (1 Bft) O 90 0,9 C 6,2 C
05.04.2012 13:47 6,4 C 70 % 1020,6 hPa 0,0 l/m 2,5 km/h (1 Bft) O-SO 112 1,3 C 6,4 C
05.04.2012 13:52 6,4 C 69 % 1020,6 hPa 0,0 l/m 12,6 km/h (3 Bft) O-NO 67 1,1 C 3,8 C
05.04.2012 13:57 6,5 C 68 % 1020,6 hPa 0,0 l/m 8,3 km/h (2 Bft) O-SO 112 1,0 C 4,8 C
05.04.2012 14:02 6,6 C 67 % 1020,6 hPa 0,0 l/m 8,6 km/h (2 Bft) O-SO 112 0,9 C 4,9 C
05.04.2012 14:07 6,8 C 67 % 1020,6 hPa 0,0 l/m 8,3 km/h (2 Bft) O 90 1,1 C 5,2 C
05.04.2012 14:12 6,9 C 66 % 1020,8 hPa 0,0 l/m 7,6 km/h (2 Bft) O-NO 67 1,0 C 5,5 C
05.04.2012 14:17 6,9 C 66 % 1020,7 hPa 0,0 l/m 8,6 km/h (2 Bft) O 90 1,0 C 5,2 C
05.04.2012 14:22 6,8 C 66 % 1020,7 hPa 0,0 l/m 5,8 km/h (2 Bft) O 90 0,9 C 5,9 C
05.04.2012 14:27 6,8 C 67 % 1020,6 hPa 0,0 l/m 13,7 km/h (3 Bft) O-NO 67 1,1 C 4,2 C
05.04.2012 14:32 6,8 C 66 % 1020,6 hPa 0,0 l/m 0,0 km/h (0 Bft) O-SO 112 0,9 C 6,8 C
05.04.2012 14:37 6,9 C 66 % 1020,6 hPa 0,0 l/m 5,8 km/h (2 Bft) SO 135 1,0 C 6,0 C
05.04.2012 14:42 7,1 C 65 % 1020,6 hPa 0,0 l/m 5,0 km/h (1 Bft) O-SO 112 1,0 C 6,5 C
05.04.2012 14:47 7,3 C 65 % 1020,3 hPa 0,0 l/m 8,6 km/h (2 Bft) O-NO 67 1,2 C 5,7 C
05.04.2012 14:52 7,3 C 64 % 1020,3 hPa 0,0 l/m 5,0 km/h (1 Bft) O 90 1,0 C 6,7 C
05.04.2012 14:57 7,3 C 64 % 1020,4 hPa 0,0 l/m 7,2 km/h (2 Bft) O-NO 67 1,0 C 6,0 C
05.04.2012 15:02 7,3 C 64 % 1020,3 hPa 0,0 l/m 5,8 km/h (2 Bft) O-NO 67 1,0 C 6,4 C
05.04.2012 15:07 7,4 C 64 % 1020,3 hPa 0,0 l/m 14,4 km/h (3 Bft) O 90 1,0 C 4,8 C
05.04.2012 15:12 7,4 C 63 % 1020,2 hPa 0,0 l/m 10,8 km/h (2 Bft) O 90 0,8 C 5,4 C
05.04.2012 15:17 7,4 C 63 % 1020,4 hPa 0,0 l/m 2,2 km/h (1 Bft) O-NO 67 0,8 C 7,4 C
05.04.2012 15:22 7,4 C 64 % 1020,2 hPa 0,0 l/m 5,4 km/h (1 Bft) O-NO 67 1,0 C 6,7 C
05.04.2012 15:27 7,4 C 64 % 1020,1 hPa 0,0 l/m 0,0 km/h (0 Bft) O 90 1,0 C 7,4 C
05.04.2012 15:32 7,4 C 64 % 1020,1 hPa 0,0 l/m 6,1 km/h (2 Bft) O 90 1,0 C 6,5 C
05.04.2012 15:37 7,4 C 63 % 1020,2 hPa 0,0 l/m 7,6 km/h (2 Bft) O 90 0,8 C 6,0 C
05.04.2012 15:42 7,4 C 63 % 1020,0 hPa 0,0 l/m 2,2 km/h (1 Bft) O-NO 67 0,8 C 7,4 C
05.04.2012 15:47 7,3 C 63 % 1020,1 hPa 0,0 l/m 4,7 km/h (1 Bft) N-NO 22 0,7 C 6,8 C
05.04.2012 15:52 7,4 C 64 % 1020,0 hPa 0,0 l/m 0,0 km/h (0 Bft) O-SO 112 1,0 C 7,4 C
05.04.2012 15:57 7,4 C 64 % 1019,9 hPa 0,0 l/m 0,0 km/h (0 Bft) O 90 1,0 C 7,4 C
05.04.2012 16:02 7,6 C 64 % 1019,9 hPa 0,0 l/m 9,0 km/h (2 Bft) O 90 1,2 C 6,0 C
05.04.2012 16:07 7,8 C 64 % 1020,0 hPa 0,0 l/m 3,6 km/h (1 Bft) O-SO 112 1,4 C 7,8 C
05.04.2012 16:12 7,9 C 63 % 1019,8 hPa 0,0 l/m 2,5 km/h (1 Bft) S 180 1,3 C 7,9 C
05.04.2012 16:17 8,3 C 62 % 1019,7 hPa 0,0 l/m 11,2 km/h (2 Bft) NO 45 1,5 C 6,4 C
05.04.2012 16:22 8,4 C 62 % 1019,7 hPa 0,0 l/m 5,8 km/h (2 Bft) O 90 1,6 C 7,7 C
05.04.2012 16:27 8,3 C 62 % 1019,6 hPa 0,0 l/m 4,3 km/h (1 Bft) O 90 1,5 C 8,3 C
05.04.2012 16:32 8,4 C 61 % 1019,6 hPa 0,0 l/m 5,4 km/h (1 Bft) O 90 1,3 C 7,8 C
05.04.2012 16:37 8,5 C 60 % 1019,6 hPa 0,0 l/m 4,0 km/h (1 Bft) O 90 1,2 C 8,5 C
05.04.2012 16:42 8,6 C 61 % 1019,4 hPa 0,0 l/m 5,4 km/h (1 Bft) S-SO 157 1,5 C 8,0 C
05.04.2012 16:47 8,8 C 60 % 1019,3 hPa 0,0 l/m 4,7 km/h (1 Bft) O 90 1,5 C 8,5 C
05.04.2012 16:52 8,9 C 60 % 1019,3 hPa 0,0 l/m 6,1 km/h (2 Bft) NO 45 1,6 C 8,2 C
05.04.2012 16:57 8,9 C 59 % 1019,3 hPa 0,0 l/m 6,5 km/h (2 Bft) O-SO 112 1,3 C 8,1 C
05.04.2012 17:02 8,9 C 59 % 1019,0 hPa 0,0 l/m 0,0 km/h (0 Bft) S 180 1,3 C 8,9 C
05.04.2012 17:07 8,9 C 59 % 1019,2 hPa 0,0 l/m 3,2 km/h (1 Bft) S-SO 157 1,3 C 8,9 C
05.04.2012 17:12 8,9 C 59 % 1019,2 hPa 0,0 l/m 4,7 km/h (1 Bft) SO 135 1,3 C 8,6 C
05.04.2012 17:17 8,9 C 59 % 1019,0 hPa 0,0 l/m 7,2 km/h (2 Bft) NO 45 1,3 C 7,9 C
05.04.2012 17:22 8,9 C 59 % 1019,0 hPa 0,0 l/m 2,2 km/h (1 Bft) SO 135 1,3 C 8,9 C
05.04.2012 17:27 8,9 C 58 % 1018,9 hPa 0,0 l/m 7,2 km/h (2 Bft) SO 135 1,1 C 7,9 C
05.04.2012 17:32 9,0 C 58 % 1018,9 hPa 0,0 l/m 2,2 km/h (1 Bft) O 90 1,2 C 9,0 C
05.04.2012 17:37 9,0 C 58 % 1018,8 hPa 0,0 l/m 4,7 km/h (1 Bft) O-NO 67 1,2 C 8,7 C
05.04.2012 17:42 8,9 C 58 % 1018,9 hPa 0,0 l/m 8,3 km/h (2 Bft) S-SO 157 1,1 C 7,7 C
05.04.2012 17:47 8,8 C 59 % 1018,9 hPa 0,0 l/m 0,0 km/h (0 Bft) O-SO 112 1,2 C 8,8 C
05.04.2012 17:52 8,6 C 59 % 1018,9 hPa 0,0 l/m 3,6 km/h (1 Bft) O-NO 67 1,0 C 8,6 C
05.04.2012 17:57 8,5 C 59 % 1019,0 hPa 0,0 l/m 2,5 km/h (1 Bft) NO 45 1,0 C 8,5 C
05.04.2012 18:02 8,5 C 59 % 1018,7 hPa 0,0 l/m 3,2 km/h (1 Bft) O 90 1,0 C 8,5 C
05.04.2012 18:07 8,4 C 60 % 1018,7 hPa 0,0 l/m 4,7 km/h (1 Bft) O-SO 112 1,1 C 8,0 C
05.04.2012 18:12 8,4 C 60 % 1018,9 hPa 0,5 l/m 0,0 km/h (0 Bft) O 90 1,1 C 8,4 C
05.04.2012 18:17 8,4 C 60 % 1018,9 hPa 0,0 l/m 2,5 km/h (1 Bft) O 90 1,1 C 8,4 C
05.04.2012 18:22 8,3 C 60 % 1018,7 hPa 0,0 l/m 0,0 km/h (0 Bft) O 90 1,0 C 8,3 C
05.04.2012 18:27 8,3 C 61 % 1018,8 hPa 0,0 l/m 1,8 km/h (1 Bft) O-SO 112 1,2 C 8,3 C
05.04.2012 18:32 8,4 C 61 % 1018,8 hPa 0,0 l/m 3,2 km/h (1 Bft) O-SO 112 1,3 C 8,4 C
05.04.2012 18:37 8,4 C 61 % 1018,7 hPa 0,0 l/m 1,4 km/h (1 Bft) O-SO 112 1,3 C 8,4 C
05.04.2012 18:42 8,4 C 60 % 1018,7 hPa 0,0 l/m 1,1 km/h (1 Bft) S-SO 157 1,1 C 8,4 C
05.04.2012 18:47 8,5 C 61 % 1018,6 hPa 0,0 l/m 0,0 km/h (0 Bft) O-SO 112 1,4 C 8,5 C
05.04.2012 18:52 8,5 C 61 % 1018,6 hPa 0,0 l/m 2,5 km/h (1 Bft) O-SO 112 1,4 C 8,5 C
05.04.2012 18:57 8,6 C 61 % 1018,5 hPa 0,0 l/m 0,0 km/h (0 Bft) O 90 1,5 C 8,6 C
05.04.2012 19:02 8,7 C 61 % 1018,4 hPa 0,0 l/m 1,1 km/h (1 Bft) S-SO 157 1,6 C 8,7 C
05.04.2012 19:07 8,8 C 61 % 1018,5 hPa 0,0 l/m 0,0 km/h (0 Bft) O-SO 112 1,7 C 8,8 C
05.04.2012 19:12 8,8 C 61 % 1018,5 hPa 0,0 l/m 0,0 km/h (0 Bft) O-SO 112 1,7 C 8,8 C
05.04.2012 19:17 9,2 C 61 % 1018,5 hPa 0,0 l/m 0,0 km/h (0 Bft) S-SO 157 2,1 C 9,2 C
05.04.2012 19:22 9,4 C 60 % 1018,5 hPa 0,0 l/m 0,0 km/h (0 Bft) S-SO 157 2,0 C 9,4 C
05.04.2012 19:27 9,2 C 60 % 1018,6 hPa 0,0 l/m 0,0 km/h (0 Bft) O-SO 112 1,8 C 9,2 C
05.04.2012 19:32 8,9 C 61 % 1018,6 hPa 0,0 l/m 0,0 km/h (0 Bft) O-SO 112 1,8 C 8,9 C
05.04.2012 19:37 8,6 C 62 % 1018,6 hPa 0,5 l/m 0,0 km/h (0 Bft) O-SO 112 1,7 C 8,6 C
05.04.2012 19:42 8,4 C 62 % 1018,5 hPa 0,0 l/m 0,0 km/h (0 Bft) O-SO 112 1,6 C 8,4 C
05.04.2012 19:47 8,3 C 62 % 1018,6 hPa 0,0 l/m 0,0 km/h (0 Bft) O-SO 112 1,5 C 8,3 C
05.04.2012 19:52 8,2 C 63 % 1018,5 hPa 0,0 l/m 0,0 km/h (0 Bft) O-SO 112 1,6 C 8,2 C
05.04.2012 19:57 8,1 C 64 % 1018,6 hPa 0,0 l/m 2,2 km/h (1 Bft) O-SO 112 1,7 C 8,1 C
05.04.2012 20:02 7,9 C 64 % 1018,5 hPa 0,0 l/m 0,0 km/h (0 Bft) O-SO 112 1,5 C 7,9 C
05.04.2012 20:07 7,9 C 64 % 1018,6 hPa 0,0 l/m 1,4 km/h (1 Bft) O-SO 112 1,5 C 7,9 C
05.04.2012 20:12 7,8 C 65 % 1018,7 hPa 0,0 l/m 0,0 km/h (0 Bft) O-SO 112 1,6 C 7,8 C
05.04.2012 20:17 7,8 C 65 % 1018,6 hPa 0,0 l/m 0,0 km/h (0 Bft) O-SO 112 1,6 C 7,8 C
05.04.2012 20:22 7,7 C 65 % 1018,6 hPa 0,0 l/m 1,8 km/h (1 Bft) O-SO 112 1,5 C 7,7 C
05.04.2012 20:27 7,6 C 66 % 1018,6 hPa 0,0 l/m 0,0 km/h (0 Bft) S-SW 202 1,7 C 7,6 C
05.04.2012 20:32 7,6 C 66 % 1018,6 hPa 0,0 l/m 2,2 km/h (1 Bft) S-SW 202 1,7 C 7,6 C
05.04.2012 20:37 7,5 C 67 % 1018,7 hPa 0,0 l/m 0,0 km/h (0 Bft) W 270 1,8 C 7,5 C
05.04.2012 20:42 7,4 C 68 % 1018,7 hPa 0,0 l/m 1,4 km/h (1 Bft) W 270 1,9 C 7,4 C
05.04.2012 20:47 7,3 C 68 % 1018,7 hPa 0,0 l/m 1,8 km/h (1 Bft) W-SW 247 1,8 C 7,3 C
05.04.2012 20:52 7,2 C 68 % 1018,9 hPa 0,0 l/m 1,4 km/h (1 Bft) W-SW 247 1,7 C 7,2 C
05.04.2012 20:57 7,2 C 68 % 1018,8 hPa 0,0 l/m 2,5 km/h (1 Bft) SW 225 1,7 C 7,2 C
05.04.2012 21:02 7,1 C 68 % 1019,0 hPa 0,0 l/m 1,8 km/h (1 Bft) S-SW 202 1,6 C 7,1 C
05.04.2012 21:07 7,1 C 69 % 1018,9 hPa 0,0 l/m 0,0 km/h (0 Bft) S-SW 202 1,8 C 7,1 C
05.04.2012 21:12 6,9 C 69 % 1019,0 hPa 0,0 l/m 2,2 km/h (1 Bft) S-SW 202 1,6 C 6,9 C
05.04.2012 21:17 6,9 C 69 % 1019,0 hPa 0,0 l/m 0,0 km/h (0 Bft) S-SW 202 1,6 C 6,9 C
05.04.2012 21:22 6,9 C 69 % 1018,9 hPa 0,0 l/m 0,0 km/h (0 Bft) W-SW 247 1,6 C 6,9 C
05.04.2012 21:27 6,8 C 70 % 1019,0 hPa 0,0 l/m 2,2 km/h (1 Bft) W 270 1,7 C 6,8 C
05.04.2012 21:32 6,7 C 70 % 1019,1 hPa 0,0 l/m 1,1 km/h (1 Bft) SW 225 1,6 C 6,7 C
05.04.2012 21:37 6,6 C 70 % 1018,9 hPa 0,0 l/m 0,0 km/h (0 Bft) SW 225 1,5 C 6,6 C
05.04.2012 21:42 6,5 C 70 % 1018,8 hPa 0,0 l/m 2,2 km/h (1 Bft) W-SW 247 1,4 C 6,5 C
05.04.2012 21:47 6,4 C 70 % 1018,9 hPa 0,0 l/m 3,2 km/h (1 Bft) SW 225 1,3 C 6,4 C
05.04.2012 21:52 6,4 C 71 % 1018,8 hPa 0,0 l/m 1,4 km/h (1 Bft) W 270 1,5 C 6,4 C
05.04.2012 21:57 6,3 C 71 % 1018,7 hPa 0,0 l/m 0,0 km/h (0 Bft) W-SW 247 1,4 C 6,3 C
05.04.2012 22:02 6,2 C 71 % 1018,7 hPa 0,0 l/m 0,0 km/h (0 Bft) W 270 1,3 C 6,2 C
05.04.2012 22:07 6,1 C 71 % 1018,6 hPa 0,0 l/m 2,2 km/h (1 Bft) W-NW 292 1,2 C 6,1 C
05.04.2012 22:12 5,9 C 72 % 1018,8 hPa 0,0 l/m 0,0 km/h (0 Bft) NW 315 1,2 C 5,9 C
05.04.2012 22:17 5,8 C 72 % 1018,7 hPa 0,0 l/m 0,0 km/h (0 Bft) W-NW 292 1,2 C 5,8 C
05.04.2012 22:22 5,8 C 72 % 1018,8 hPa 0,0 l/m 0,0 km/h (0 Bft) W 270 1,2 C 5,8 C
05.04.2012 22:27 5,6 C 72 % 1018,8 hPa 0,0 l/m 1,4 km/h (1 Bft) W 270 1,0 C 5,6 C
05.04.2012 22:32 5,6 C 73 % 1018,5 hPa 0,0 l/m 0,0 km/h (0 Bft) W 270 1,2 C 5,6 C
05.04.2012 22:37 5,5 C 73 % 1018,7 hPa 0,0 l/m 1,8 km/h (1 Bft) W 270 1,1 C 5,5 C
05.04.2012 22:42 5,4 C 73 % 1018,6 hPa 0,0 l/m 2,2 km/h (1 Bft) W 270 1,0 C 5,4 C
05.04.2012 22:47 5,4 C 73 % 1018,8 hPa 0,0 l/m 2,5 km/h (1 Bft) W 270 1,0 C 5,4 C
05.04.2012 22:52 5,3 C 73 % 1018,6 hPa 0,0 l/m 5,0 km/h (1 Bft) SW 225 0,9 C 4,4 C
05.04.2012 22:57 5,3 C 74 % 1018,7 hPa 0,0 l/m 2,5 km/h (1 Bft) S-SW 202 1,0 C 5,3 C
05.04.2012 23:02 5,2 C 74 % 1018,7 hPa 0,0 l/m 4,0 km/h (1 Bft) W-SW 247 1,0 C 5,2 C
05.04.2012 23:07 5,1 C 74 % 1018,6 hPa 0,0 l/m 0,0 km/h (0 Bft) W-SW 247 0,9 C 5,1 C
05.04.2012 23:12 5,0 C 74 % 1018,5 hPa 0,0 l/m 0,0 km/h (0 Bft) W 270 0,8 C 5,0 C
05.04.2012 23:17 4,9 C 74 % 1018,3 hPa 0,0 l/m 0,0 km/h (0 Bft) W 270 0,7 C 4,9 C
05.04.2012 23:22 4,8 C 75 % 1018,4 hPa 0,0 l/m 1,8 km/h (1 Bft) W 270 0,8 C 4,8 C
05.04.2012 23:27 4,8 C 75 % 1018,4 hPa 0,0 l/m 0,0 km/h (0 Bft) W 270 0,8 C 4,8 C
05.04.2012 23:32 4,7 C 75 % 1018,5 hPa 0,0 l/m 0,0 km/h (0 Bft) W 270 0,7 C 4,7 C
05.04.2012 23:37 4,4 C 75 % 1018,5 hPa 0,0 l/m 7,2 km/h (2 Bft) NO 45 0,4 C 2,7 C
05.04.2012 23:42 3,9 C 76 % 1018,5 hPa 0,0 l/m 4,0 km/h (1 Bft) O-NO 67 0,1 C 3,9 C
05.04.2012 23:47 3,9 C 76 % 1018,5 hPa 0,0 l/m 0,0 km/h (0 Bft) O 90 0,1 C 3,9 C
05.04.2012 23:52 3,8 C 77 % 1018,6 hPa 0,0 l/m 0,0 km/h (0 Bft) SO 135 0,1 C 3,8 C
05.04.2012 23:57 3,9 C 77 % 1018,6 hPa 0,0 l/m 0,0 km/h (0 Bft) SO 135 0,2 C 3,9 C
_ Min-Zeit 03:12 17:27 00:07 - 05:07 - - 23:42 07:22
Minimum _ 3,3 C 58 % 1017,4 hPa - 0,0 km/h (0 Bft) - - 0,1 C -0,3 C
_ Max-Zeit 19:22 04:02 10:22 18:12 07:22 - - 19:17 19:22
Maximum _ 9,4 C 88 % 1021,2 hPa 0,5 l/m 14,8 km/h
O-NO (3 Bft)
- - 2,1 C 9,4 C
Durchschnitt _ 5,4 C 76 % 1019,4 hPa #1,0 l/m 4,6 km/h (1 Bft) O-NO - 1,3 C 4,6 C
(c) by David Heller